KCOF/COF METAR and TAF weather

Enter ICAO airport designator
Station Type Date Time Source
KCOF METAR 2018/10/22 15:56 UTC NOAA

KCOF 221556Z AUTO 09009KT 10SM CLR 27/17 A3017 RMK AO2 SLP221 T02690174 $


Station Type Date Time Source
KCOF Decoded METAR 2018/10/22 15:56 UTC NOAA

Cocoa / Patrick Air Force Base, FL, United States (KCOF) 28-14N 080-36W 3M
Oct 22, 2018 - 11:56 AM EDT / 2018.10.22 1556 UTC
Wind: from the E (090 degrees) at 10 MPH (9 KT):0
Visibility: 10 mile(s):0
Sky conditions: clear
Temperature: 80.4 F (26.9 C)
Dew Point: 63.3 F (17.4 C)
Relative Humidity: 56%
Pressure (altimeter): 30.17 in. Hg (1021 hPa)
ob: KCOF 221556Z AUTO 09009KT 10SM CLR 27/17 A3017 RMK AO2 SLP221 T02690174
cycle: 16

Station Type Date Time Source
KCOF TAF 2018/10/22 10:07 UTC NOAA

TAF KCOF 221000Z 2210/2316 07012G18KT 9999 SCT040 QNH3009INS
BECMG 2302/2303 09009KT 9999 SCT035 QNH3003INS
BECMG 2308/2309 09006KT 9999 BKN030 QNH3003INS TX27/2217Z TN23/2308Z


Example: see airport list